createdAt,value
2022-09-03T00:00:29.366Z,98957.56
2022-09-03T00:03:14.406Z,98955.16
2022-09-03T00:05:50.274Z,98950.00
2022-09-03T00:08:40.718Z,98949.00
2022-09-03T00:11:20.250Z,98951.03
2022-09-03T00:14:24.809Z,98947.88
2022-09-03T00:17:01.354Z,98943.72
2022-09-03T00:19:37.198Z,98948.47
2022-09-03T00:22:09.113Z,98942.59
2022-09-03T00:24:37.755Z,98939.88
2022-09-03T00:27:07.193Z,98930.47
2022-09-03T00:29:38.341Z,98931.75
2022-09-03T00:32:09.625Z,98927.34
2022-09-03T00:34:40.873Z,98925.06
2022-09-03T00:37:14.325Z,98916.19
2022-09-03T00:39:43.235Z,98915.31
2022-09-03T00:42:23.717Z,98919.06
2022-09-03T00:45:09.306Z,98921.19
2022-09-03T00:47:42.381Z,98924.06
2022-09-03T00:50:13.068Z,98925.47
2022-09-03T00:52:55.393Z,98926.19
2022-09-03T00:55:37.808Z,98926.63
2022-09-03T00:58:23.202Z,98931.03
2022-09-03T01:00:50.256Z,98935.88
2022-09-03T01:03:36.232Z,98930.44
2022-09-03T01:06:09.235Z,98931.75
2022-09-03T01:08:57.915Z,98932.72
2022-09-03T01:11:30.828Z,98940.16
2022-09-03T01:14:16.270Z,98935.03
2022-09-03T01:16:56.380Z,98921.88
2022-09-03T01:19:52.177Z,98923.88
2022-09-03T01:22:38.645Z,98927.72
2022-09-03T01:25:32.144Z,98933.03
2022-09-03T01:28:33.522Z,98927.59
2022-09-03T01:31:31.222Z,98923.16
2022-09-03T01:34:22.528Z,98930.44
2022-09-03T01:36:58.577Z,98929.72
2022-09-03T01:39:46.462Z,98929.41
2022-09-03T01:42:24.741Z,98927.72
2022-09-03T01:45:22.677Z,98929.84
2022-09-03T01:47:56.962Z,98923.56
2022-09-03T01:50:34.129Z,98932.00
2022-09-03T01:53:25.693Z,98929.28
2022-09-03T01:56:21.232Z,98931.38
2022-09-03T01:59:02.821Z,98930.25
2022-09-03T02:01:33.147Z,98933.81
2022-09-03T02:04:00.257Z,98932.38
2022-09-03T02:06:27.841Z,98930.78
2022-09-03T02:08:54.685Z,98931.66
2022-09-03T02:11:21.769Z,98935.50
2022-09-03T02:13:51.189Z,98940.63
2022-09-03T02:16:29.089Z,98935.19
2022-09-03T02:19:16.588Z,98941.50
2022-09-03T02:21:51.772Z,98942.03
2022-09-03T02:24:19.117Z,98938.03
2022-09-03T02:26:46.917Z,98930.94
2022-09-03T02:29:14.758Z,98935.78
2022-09-03T02:31:41.824Z,98933.19
2022-09-03T02:34:09.040Z,98942.44
2022-09-03T02:36:45.949Z,98947.03
2022-09-03T02:39:13.879Z,98951.13
2022-09-03T02:41:40.922Z,98946.00
2022-09-03T02:44:31.781Z,98938.97
2022-09-03T02:47:03.798Z,98931.84
2022-09-03T02:49:31.004Z,98936.41
2022-09-03T02:52:05.347Z,98933.56
2022-09-03T02:54:35.929Z,98934.69
2022-09-03T02:57:03.065Z,98941.13
2022-09-03T02:59:29.932Z,98935.50
2022-09-03T03:01:57.148Z,98939.16
2022-09-03T03:04:28.319Z,98933.03
2022-09-03T03:06:55.809Z,98942.31
2022-09-03T03:09:22.874Z,98935.03
2022-09-03T03:11:50.650Z,98930.72
2022-09-03T03:14:18.483Z,98934.59
2022-09-03T03:16:45.830Z,98930.16
2022-09-03T03:19:12.714Z,98927.69
2022-09-03T03:21:39.899Z,98937.69
2022-09-03T03:24:07.434Z,98939.56
2022-09-03T03:26:34.462Z,98943.38
2022-09-03T03:29:04.711Z,98933.81
2022-09-03T03:31:32.080Z,98934.53
2022-09-03T03:34:00.522Z,98934.53
2022-09-03T03:36:29.238Z,98927.94
2022-09-03T03:38:58.320Z,98935.19
2022-09-03T03:41:27.257Z,98941.50
2022-09-03T03:43:58.547Z,98941.34
2022-09-03T03:46:26.148Z,98940.03
2022-09-03T03:48:53.101Z,98941.28
2022-09-03T03:51:20.097Z,98946.59
2022-09-03T03:53:47.274Z,98945.69
2022-09-03T03:56:15.222Z,98953.84
2022-09-03T03:58:44.186Z,98959.53
2022-09-03T04:01:13.479Z,98957.69
2022-09-03T04:03:40.548Z,98963.09
2022-09-03T04:06:08.060Z,98956.09
2022-09-03T04:08:36.634Z,98962.50
2022-09-03T04:11:04.512Z,98960.19
2022-09-03T04:13:32.220Z,98961.03
2022-09-03T04:16:10.709Z,98956.50
2022-09-03T04:18:37.856Z,98961.31
2022-09-03T04:21:07.696Z,98961.59
2022-09-03T04:23:35.373Z,98958.00
2022-09-03T04:26:02.356Z,98958.00
2022-09-03T04:28:31.164Z,98961.84
2022-09-03T04:31:08.312Z,98962.69
2022-09-03T04:33:38.156Z,98964.56
2022-09-03T04:36:26.036Z,98968.25
2022-09-03T04:38:54.666Z,98970.94
2022-09-03T04:41:24.838Z,98975.25
2022-09-03T04:43:53.065Z,98974.66
2022-09-03T04:46:24.192Z,98978.09
2022-09-03T04:48:51.971Z,98967.66
2022-09-03T04:51:27.486Z,98970.94
2022-09-03T04:53:59.044Z,98969.25
2022-09-03T04:56:27.928Z,98967.25
2022-09-03T04:58:59.641Z,98967.25
2022-09-03T05:01:29.832Z,98969.09
2022-09-03T05:03:58.107Z,98966.38
2022-09-03T05:06:29.099Z,98968.50
2022-09-03T05:08:56.154Z,98975.66
2022-09-03T05:11:23.917Z,98970.22
2022-09-03T05:13:51.965Z,98965.53
2022-09-03T05:16:19.137Z,98965.66
2022-09-03T05:18:47.021Z,98967.25
2022-09-03T05:21:18.356Z,98968.13
2022-09-03T05:23:46.602Z,98972.09
2022-09-03T05:26:16.319Z,98966.25
2022-09-03T05:28:43.598Z,98977.72
2022-09-03T05:31:11.510Z,98975.00
2022-09-03T05:33:40.722Z,98974.03
2022-09-03T05:36:09.153Z,98975.38
2022-09-03T05:38:36.313Z,98972.44
2022-09-03T05:41:05.134Z,98974.00
2022-09-03T05:43:32.269Z,98971.28
2022-09-03T05:46:03.041Z,98972.00
2022-09-03T05:48:31.007Z,98974.72
2022-09-03T05:51:01.455Z,98968.91
2022-09-03T05:53:29.195Z,98974.44
2022-09-03T05:56:04.283Z,98969.59
2022-09-03T05:58:34.948Z,98973.22
2022-09-03T06:01:14.867Z,98972.34
2022-09-03T06:03:42.444Z,98973.94
2022-09-03T06:06:09.887Z,98976.38
2022-09-03T06:08:38.734Z,98974.13
2022-09-03T06:11:06.527Z,98971.16
2022-09-03T06:13:33.979Z,98973.03
2022-09-03T06:16:02.367Z,98968.34
2022-09-03T06:18:29.475Z,98962.41
2022-09-03T06:20:56.859Z,98962.97
2022-09-03T06:23:24.371Z,98968.97
2022-09-03T06:26:05.496Z,98969.91
2022-09-03T06:28:34.937Z,98958.81
2022-09-03T06:31:03.200Z,98961.81
2022-09-03T06:33:33.527Z,98955.88
2022-09-03T06:36:03.779Z,98968.44
2022-09-03T06:38:33.536Z,98966.19
2022-09-03T06:41:04.371Z,98979.75
2022-09-03T06:43:33.075Z,98975.50
2022-09-03T06:46:01.404Z,98982.34
2022-09-03T06:48:28.743Z,98985.22
2022-09-03T06:51:04.215Z,98978.41
2022-09-03T06:53:33.399Z,98983.97
2022-09-03T06:56:02.411Z,98986.84
2022-09-03T06:58:30.487Z,98987.13
2022-09-03T07:01:06.938Z,98980.88
2022-09-03T07:03:34.971Z,98990.88
2022-09-03T07:06:06.035Z,98986.50
2022-09-03T07:08:34.335Z,98982.91
2022-09-03T07:11:09.660Z,98983.06
2022-09-03T07:13:37.301Z,98984.94
2022-09-03T07:16:06.571Z,98982.19
2022-09-03T07:18:33.691Z,98979.31
2022-09-03T07:21:01.621Z,98982.00
2022-09-03T07:23:29.144Z,98987.44
2022-09-03T07:25:56.816Z,98990.28
2022-09-03T07:28:24.994Z,98988.38
2022-09-03T07:30:52.963Z,98984.50
2022-09-03T07:33:20.063Z,98988.03
2022-09-03T07:35:47.457Z,98985.13
2022-09-03T07:38:19.891Z,98987.97
2022-09-03T07:40:47.308Z,98996.09
2022-09-03T07:43:14.220Z,98987.00
2022-09-03T07:45:41.431Z,98984.22
2022-09-03T07:48:08.316Z,98987.72
2022-09-03T07:50:39.285Z,98991.56
2022-09-03T07:53:06.503Z,98991.47
2022-09-03T07:55:33.926Z,98993.88
2022-09-03T07:58:00.825Z,98996.69
2022-09-03T08:00:28.673Z,99003.91
2022-09-03T08:02:56.672Z,98998.38
2022-09-03T08:05:23.613Z,99003.06
2022-09-03T08:07:51.022Z,99001.25
2022-09-03T08:10:18.042Z,99007.78
2022-09-03T08:12:44.916Z,98998.66
2022-09-03T08:15:12.050Z,98984.06
2022-09-03T08:17:38.940Z,98994.19
2022-09-03T08:20:06.352Z,99002.13
2022-09-03T08:22:34.284Z,98998.44
2022-09-03T08:25:01.754Z,99002.25
2022-09-03T08:27:29.207Z,99000.72
2022-09-03T08:29:56.342Z,98999.38
2022-09-03T08:32:23.230Z,98997.72
2022-09-03T08:34:52.274Z,98996.88
2022-09-03T08:37:19.365Z,98985.00
2022-09-03T08:39:46.306Z,98988.94
2022-09-03T08:42:48.594Z,98983.69
2022-09-03T08:45:18.307Z,98982.00
2022-09-03T08:47:50.307Z,98986.97
2022-09-03T08:50:26.487Z,98990.03
2022-09-03T08:53:14.139Z,98993.16
2022-09-03T08:55:50.644Z,98995.72
2022-09-03T08:58:19.329Z,98993.34
2022-09-03T09:00:53.771Z,98990.97
2022-09-03T09:03:32.959Z,98999.19
2022-09-03T09:06:18.481Z,98991.34
2022-09-03T09:09:20.778Z,98990.00
2022-09-03T09:12:14.379Z,98986.59
2022-09-03T09:15:12.953Z,98993.59
2022-09-03T09:17:58.977Z,98992.22
2022-09-03T09:20:51.103Z,98985.59
2022-09-03T09:23:43.863Z,98988.16
2022-09-03T09:26:12.050Z,98994.13
2022-09-03T09:28:39.417Z,98988.16
2022-09-03T09:31:07.856Z,98997.88
2022-09-03T09:33:35.423Z,98993.09
2022-09-03T09:36:04.590Z,98997.59
2022-09-03T09:38:33.130Z,98991.59
2022-09-03T09:41:13.223Z,98994.69
2022-09-03T09:43:40.521Z,98990.72
2022-09-03T09:46:21.576Z,99000.16
2022-09-03T09:48:52.417Z,98995.84
2022-09-03T09:51:31.205Z,98993.09
2022-09-03T09:54:14.525Z,98997.88
2022-09-03T09:56:42.869Z,98997.16
2022-09-03T09:59:11.145Z,99000.06
2022-09-03T10:01:39.280Z,98997.50
2022-09-03T10:04:22.225Z,99000.03
2022-09-03T10:07:24.420Z,99003.44
2022-09-03T10:10:06.985Z,98997.09
2022-09-03T10:12:42.242Z,99005.13
2022-09-03T10:15:24.658Z,99010.44
2022-09-03T10:18:00.629Z,99006.63
2022-09-03T10:20:38.076Z,98995.66
2022-09-03T10:23:05.164Z,99002.16
2022-09-03T10:25:50.254Z,99002.63
2022-09-03T10:28:17.761Z,99004.81
2022-09-03T10:31:03.487Z,98996.25
2022-09-03T10:33:44.372Z,98992.50
2022-09-03T10:36:17.356Z,98992.53
2022-09-03T10:38:44.672Z,98983.44
2022-09-03T10:41:30.118Z,98987.69
2022-09-03T10:44:06.076Z,98982.88
2022-09-03T10:46:52.306Z,98988.53
2022-09-03T10:49:32.550Z,98997.44
2022-09-03T10:52:15.746Z,98984.28
2022-09-03T10:55:04.849Z,98987.31
2022-09-03T10:57:43.154Z,98980.44
2022-09-03T11:00:13.039Z,98981.78
2022-09-03T11:02:41.260Z,98978.69
2022-09-03T11:05:16.392Z,98973.34
2022-09-03T11:07:45.848Z,98969.38
2022-09-03T11:10:23.814Z,98979.00
2022-09-03T11:12:57.850Z,98985.81
2022-09-03T11:15:49.872Z,98982.06
2022-09-03T11:18:27.834Z,98970.78
2022-09-03T11:20:56.718Z,98971.09
2022-09-03T11:23:24.663Z,98961.94
2022-09-03T11:25:53.862Z,98972.03
2022-09-03T11:28:32.760Z,98965.34
2022-09-03T11:31:17.838Z,98965.25
2022-09-03T11:33:50.896Z,98957.91
2022-09-03T11:36:26.504Z,98960.09
2022-09-03T11:38:53.459Z,98959.72
2022-09-03T11:41:28.089Z,98956.97
2022-09-03T11:43:55.081Z,98952.94
2022-09-03T11:46:22.363Z,98953.25
2022-09-03T11:48:50.588Z,98942.91
2022-09-03T11:51:37.933Z,98953.13
2022-09-03T11:54:14.201Z,98959.56
2022-09-03T11:56:41.848Z,98953.53
2022-09-03T11:59:16.616Z,98953.06
2022-09-03T12:02:05.742Z,98959.56
2022-09-03T12:05:06.016Z,98956.66
2022-09-03T12:07:32.972Z,98959.31
2022-09-03T12:10:21.868Z,98959.31
2022-09-03T12:13:04.036Z,98965.75
2022-09-03T12:16:00.493Z,98967.84
2022-09-03T12:18:30.064Z,98964.09
2022-09-03T12:20:58.264Z,98972.38
2022-09-03T12:23:40.135Z,98958.38
2022-09-03T12:26:09.061Z,98953.06
2022-09-03T12:28:37.803Z,98955.16
2022-09-03T12:31:21.137Z,98959.81
2022-09-03T12:33:54.102Z,98948.50
2022-09-03T12:36:24.201Z,98942.28
2022-09-03T12:39:10.877Z,98935.94
2022-09-03T12:41:38.533Z,98940.41
2022-09-03T12:44:06.335Z,98936.16
2022-09-03T12:46:34.349Z,98938.91
2022-09-03T12:52:05.910Z,98944.88
2022-09-03T12:54:34.966Z,98939.50
2022-09-03T12:57:02.083Z,98939.28
2022-09-03T12:59:30.318Z,98942.16
2022-09-03T13:01:59.901Z,98939.41
2022-09-03T13:04:30.161Z,98938.91
2022-09-03T13:07:01.145Z,98936.66
2022-09-03T13:09:30.053Z,98935.28
2022-09-03T13:11:59.229Z,98931.78
2022-09-03T13:14:27.033Z,98919.63
2022-09-03T13:17:02.767Z,98931.28
2022-09-03T13:19:42.394Z,98941.59
2022-09-03T13:22:37.366Z,98928.44
2022-09-03T13:25:21.074Z,98926.94
2022-09-03T13:28:06.595Z,98923.59
2022-09-03T13:31:05.944Z,98930.41
2022-09-03T13:33:35.080Z,98923.91
2022-09-03T13:36:16.186Z,98920.34
2022-09-03T13:39:03.467Z,98915.59
2022-09-03T13:41:44.074Z,98920.06
2022-09-03T13:44:22.887Z,98920.25
2022-09-03T13:47:00.851Z,98917.44
2022-09-03T13:49:56.052Z,98914.75
2022-09-03T13:52:31.767Z,98913.72
2022-09-03T13:55:12.927Z,98912.75
2022-09-03T13:58:01.851Z,98909.72
2022-09-03T14:00:32.023Z,98906.97
2022-09-03T14:03:07.875Z,98913.31
2022-09-03T14:05:41.141Z,98910.00
2022-09-03T14:08:28.239Z,98913.06
2022-09-03T14:11:01.134Z,98923.03
2022-09-03T14:13:46.390Z,98916.19
2022-09-03T14:16:32.155Z,98910.13
2022-09-03T14:19:02.991Z,98910.31
2022-09-03T14:21:36.169Z,98904.44
2022-09-03T14:24:10.913Z,98909.34
2022-09-03T14:26:39.996Z,98906.41
2022-09-03T14:29:15.108Z,98898.81
2022-09-03T14:32:00.814Z,98897.09
2022-09-03T14:34:50.738Z,98901.94
2022-09-03T14:37:24.035Z,98901.38
2022-09-03T14:39:57.076Z,98898.03
2022-09-03T14:42:43.823Z,98889.34
2022-09-03T14:45:22.966Z,98889.78
2022-09-03T14:48:02.171Z,98889.19
2022-09-03T14:50:45.359Z,98889.41
2022-09-03T14:53:21.851Z,98882.66
2022-09-03T14:56:33.467Z,98883.28
2022-09-03T14:59:11.195Z,98878.47
2022-09-03T15:01:39.254Z,98886.50
2022-09-03T15:04:31.918Z,98890.94
2022-09-03T15:07:17.851Z,98884.81
2022-09-03T15:10:02.543Z,98883.53
2022-09-03T15:12:38.971Z,98878.84
2022-09-03T15:15:21.956Z,98889.59
2022-09-03T15:18:00.910Z,98875.50
2022-09-03T15:20:50.912Z,98875.72
2022-09-03T15:23:56.482Z,98884.88
2022-09-03T15:26:41.913Z,98882.31
2022-09-03T15:29:17.934Z,98890.94
2022-09-03T15:32:05.079Z,98886.50
2022-09-03T15:34:44.646Z,98884.41
2022-09-03T15:37:20.062Z,98881.91
2022-09-03T15:39:47.138Z,98883.16
2022-09-03T15:42:18.566Z,98880.59
2022-09-03T15:44:50.336Z,98886.09
2022-09-03T15:47:51.910Z,98883.53
2022-09-03T15:50:35.791Z,98882.84
2022-09-03T15:53:34.227Z,98884.56
2022-09-03T15:56:09.312Z,98890.25
2022-09-03T15:58:45.506Z,98891.22
2022-09-03T16:01:27.883Z,98891.03
2022-09-03T16:04:09.714Z,98891.03
2022-09-03T16:06:55.259Z,98893.50
2022-09-03T16:09:29.674Z,98896.25
2022-09-03T16:12:18.863Z,98892.59
2022-09-03T16:15:12.786Z,98893.44
2022-09-03T16:18:01.590Z,98890.50
2022-09-03T16:20:31.769Z,98891.53
2022-09-03T16:23:18.464Z,98882.50
2022-09-03T16:25:56.091Z,98884.78
2022-09-03T16:28:33.092Z,98882.78
2022-09-03T16:31:40.466Z,98883.97
2022-09-03T16:34:23.090Z,98882.69
2022-09-03T16:37:18.439Z,98886.97
2022-09-03T16:40:13.555Z,98881.47
2022-09-03T16:43:38.878Z,98888.88
2022-09-03T16:46:21.023Z,98889.25
2022-09-03T16:49:09.699Z,98888.28
2022-09-03T16:51:42.523Z,98886.97
2022-09-03T16:54:31.461Z,98890.94
2022-09-03T16:57:30.259Z,98886.63
2022-09-03T17:00:00.104Z,98888.13
2022-09-03T17:02:41.508Z,98884.47
2022-09-03T17:05:46.923Z,98882.56
2022-09-03T17:08:32.931Z,98889.50
2022-09-03T17:11:15.239Z,98891.97
2022-09-03T17:13:52.210Z,98896.53
2022-09-03T17:16:28.719Z,98897.22
2022-09-03T17:19:11.844Z,98892.94
2022-09-03T17:22:03.071Z,98894.84
2022-09-03T17:24:51.353Z,98902.50
2022-09-03T17:27:39.611Z,98894.47
2022-09-03T17:30:26.203Z,98900.16
2022-09-03T17:33:05.926Z,98908.56
2022-09-03T17:35:58.721Z,98907.41
2022-09-03T17:38:51.253Z,98914.50
2022-09-03T17:41:22.476Z,98915.53
2022-09-03T17:44:02.741Z,98912.50
2022-09-03T17:46:45.365Z,98920.28
2022-09-03T17:49:23.264Z,98916.38
2022-09-03T17:51:52.247Z,98923.00
2022-09-03T17:54:37.945Z,98924.03
2022-09-03T17:57:16.118Z,98931.31
2022-09-03T17:59:54.536Z,98944.25
2022-09-03T18:02:35.305Z,98941.56
2022-09-03T18:05:23.221Z,98937.13
2022-09-03T18:08:11.465Z,98938.53
2022-09-03T18:10:51.434Z,98941.47
2022-09-03T18:13:46.187Z,98942.53
2022-09-03T18:16:56.350Z,98940.31
2022-09-03T18:20:02.816Z,98942.09
2022-09-03T18:22:54.746Z,98938.19
2022-09-03T18:25:41.571Z,98931.75
2022-09-03T18:28:28.715Z,98944.75
2022-09-03T18:31:14.082Z,98937.28
2022-09-03T18:33:59.839Z,98934.25
2022-09-03T18:36:45.302Z,98932.72
2022-09-03T18:39:34.674Z,98935.97
2022-09-03T18:42:39.075Z,98934.69
2022-09-03T18:46:05.555Z,98931.28
2022-09-03T18:49:07.917Z,98940.03
2022-09-03T18:51:59.671Z,98940.91
2022-09-03T18:55:08.959Z,98947.44
2022-09-03T18:58:38.385Z,98949.00
2022-09-03T19:01:55.631Z,98945.06
2022-09-03T19:05:03.218Z,98944.25
2022-09-03T19:08:05.966Z,98947.50
2022-09-03T19:11:27.074Z,98948.91
2022-09-03T19:14:12.574Z,98950.81
2022-09-03T19:17:20.325Z,98946.56
2022-09-03T19:20:15.102Z,98946.75
2022-09-03T19:23:01.169Z,98946.59
2022-09-03T19:25:47.561Z,98941.81
2022-09-03T19:28:43.016Z,98950.72
2022-09-03T19:31:47.918Z,98949.50
2022-09-03T19:34:39.641Z,98956.53
2022-09-03T19:37:32.648Z,98946.28
2022-09-03T19:40:21.545Z,98944.25
2022-09-03T19:43:16.170Z,98939.81
2022-09-03T19:46:19.229Z,98942.69
2022-09-03T19:49:14.117Z,98953.97
2022-09-03T19:52:27.661Z,98954.66
2022-09-03T19:55:14.108Z,98947.66
2022-09-03T19:58:00.337Z,98945.09
2022-09-03T20:00:45.995Z,98951.78
2022-09-03T20:03:32.593Z,98946.47
2022-09-03T20:06:19.725Z,98952.59
2022-09-03T20:09:06.013Z,98955.00
2022-09-03T20:11:32.941Z,98962.34
2022-09-03T20:14:15.525Z,98959.94
2022-09-03T20:16:55.273Z,98962.69
2022-09-03T20:19:50.250Z,98967.13
2022-09-03T20:22:28.488Z,98964.00
2022-09-03T20:25:14.773Z,98963.31
2022-09-03T20:27:48.512Z,98969.47
2022-09-03T20:30:19.510Z,98966.19
2022-09-03T20:33:12.754Z,98966.34
2022-09-03T20:35:52.587Z,98969.06
2022-09-03T20:38:47.276Z,98963.94
2022-09-03T20:41:53.078Z,98973.63
2022-09-03T20:44:36.117Z,98976.53
2022-09-03T20:50:26.983Z,98978.22
2022-09-03T20:53:39.229Z,98973.97
2022-09-03T20:56:35.069Z,98973.59
2022-09-03T20:59:20.808Z,98981.06
2022-09-03T21:01:59.526Z,98974.72
2022-09-03T21:04:53.915Z,98981.91
2022-09-03T21:07:24.104Z,98972.16
2022-09-03T21:09:57.056Z,98980.34
2022-09-03T21:12:31.304Z,98961.72
2022-09-03T21:15:07.740Z,98968.41
2022-09-03T21:18:01.992Z,98974.00
2022-09-03T21:20:55.616Z,98967.50
2022-09-03T21:23:26.109Z,98974.97
2022-09-03T21:26:06.205Z,98974.97
2022-09-03T21:28:38.658Z,98978.53
2022-09-03T21:31:24.345Z,98974.09
2022-09-03T21:33:54.205Z,98972.41
2022-09-03T21:36:31.486Z,98978.63
2022-09-03T21:39:08.935Z,98977.97
2022-09-03T21:41:46.464Z,98980.16
2022-09-03T21:44:15.639Z,98984.56
2022-09-03T21:46:51.960Z,98989.03
2022-09-03T21:49:23.328Z,98990.91
2022-09-03T21:51:59.160Z,98988.94
2022-09-03T21:54:30.904Z,98986.22
2022-09-03T21:57:17.642Z,98991.66
2022-09-03T21:59:58.092Z,98993.00
2022-09-03T22:02:26.030Z,98992.28
2022-09-03T22:04:53.337Z,98997.22
2022-09-03T22:07:45.072Z,98991.38
2022-09-03T22:10:20.912Z,98991.38
2022-09-03T22:13:18.692Z,98986.09
2022-09-03T22:15:50.712Z,98985.03
2022-09-03T22:18:28.721Z,98986.75
2022-09-03T22:21:13.404Z,98991.63
2022-09-03T22:23:47.111Z,98983.63
2022-09-03T22:26:38.207Z,98987.38
2022-09-03T22:29:49.203Z,98995.72
2022-09-03T22:32:40.678Z,99006.91
2022-09-03T22:35:10.308Z,98997.22
2022-09-03T22:37:59.165Z,99000.09
2022-09-03T22:40:35.620Z,98993.91
2022-09-03T22:43:31.481Z,99005.38
2022-09-03T22:46:12.390Z,99010.13
2022-09-03T22:49:10.891Z,99012.31
2022-09-03T22:51:46.533Z,99004.75
2022-09-03T22:54:36.311Z,99010.03
2022-09-03T22:57:03.438Z,98999.63
2022-09-03T22:59:37.582Z,99008.13
2022-09-03T23:02:16.010Z,98999.94
2022-09-03T23:05:09.204Z,98995.34
2022-09-03T23:07:42.058Z,99000.41
2022-09-03T23:10:11.083Z,99000.25
2022-09-03T23:12:44.973Z,98995.28
2022-09-03T23:15:18.734Z,98995.13
2022-09-03T23:17:49.311Z,98986.41
2022-09-03T23:20:24.472Z,98986.25
2022-09-03T23:23:07.438Z,98989.44
2022-09-03T23:25:42.181Z,98976.66
2022-09-03T23:28:43.451Z,98985.72
2022-09-03T23:31:24.580Z,98983.97
2022-09-03T23:33:54.993Z,98988.75
2022-09-03T23:37:16.016Z,98981.72
2022-09-03T23:39:53.586Z,98978.06
2022-09-03T23:42:39.225Z,98985.78
2022-09-03T23:45:15.541Z,98985.09
2022-09-03T23:47:54.390Z,98985.78
2022-09-03T23:50:21.213Z,98983.38
2022-09-03T23:53:22.359Z,98991.00
2022-09-03T23:56:08.548Z,98993.72
2022-09-03T23:59:30.704Z,98994.31
